Flight Track Log - Related Links

Times and Time Zones

All times are in EDT time to prevent confusion due to time zone crossing. See the N8147X flight status page for this flight to view local times or setup timezone preferences in your user account.

Time Position Orientation Groundspeed Altitude Reporting Facility
EDT Latitude Longitude Course Direction KTS MPH feet Rate Location/Type
Sun 06:38:46 PM 41.3131 -72.1494 272° West 107 123 6,300  Level Boston Center
Sun 06:40:17 PM 41.3172 -72.2081 275° West 104 120 6,400 39 Climbing Boston Center
Sun 06:41:19 PM 41.3189 -72.2450 273° West 102 117 6,400 -49 Level Boston Center
Sun 06:42:19 PM 41.3214 -72.2828 275° West 103 119 6,300 -48 Descending Boston Center
Sun 06:43:23 PM 41.3228 -72.3250 273° West 107 123 6,300 48 Level Boston Center
Sun 06:44:00 PM 41.3387 -72.3005 272° West  Level Estimated
Sun 06:44:23 PM 41.3244 -72.3631 273° West 107 123 6,400  Level Boston Center
Sun 06:45:24 PM 41.3261 -72.4006 273° West 105 121 6,400  Level Boston Center
Sun 06:46:28 PM 41.3283 -72.4433 274° West 109 125 6,400  Level Boston Center
Sun 06:47:29 PM 41.3303 -72.4806 274° West 104 120 6,400  Level Boston Center
Sun 06:48:30 PM 41.3319 -72.5197 273° West 109 125 6,400  Level Boston Center
Sun 06:49:30 PM 41.3339 -72.5603 274° West 103 119 6,400  Level Boston Center
Sun 06:50:33 PM 41.3358 -72.5975 274° West 100 115 6,400 97 Level Boston Center
Sun 06:51:34 PM 41.3358 -72.6356 270° West 103 119 6,600 48 Climbing Boston Center
Sun 06:52:37 PM 41.3392 -72.6772 276° West 105 121 6,500  Descending Boston Center
Sun 06:53:38 PM 41.3417 -72.7158 275° West 106 122 6,600  Climbing Boston Center
Sun 06:54:38 PM 41.3431 -72.7547 273° West 106 122 6,500 -48 Descending Boston Center
Sun 06:55:42 PM 41.3447 -72.7967 273° West 107 123 6,500 -48 Level Boston Center
Sun 06:56:43 PM 41.3458 -72.8344 272° West 103 119 6,400 -98 Descending Boston Center
Sun 06:57:44 PM 41.3478 -72.8744 274° West 108 124 6,300  Descending Boston Center
Sun 06:58:44 PM 41.3492 -72.9164 273° West 106 122 6,400  Climbing Boston Center
Sun 06:59:48 PM 41.3506 -72.9550 273° West 104 120 6,300 -48 Descending Boston Center
Sun 07:00:48 PM 41.3525 -72.9939 274° West 106 122 6,300 -50 Level Boston Center
Sun 07:01:49 PM 41.3547 -73.0325 274° West 106 122 6,200 -99 Descending Boston Center
Sun 07:02:49 PM 41.3567 -73.0758 273° West 109 125 6,100 -197 Descending Boston Center
Sun 07:03:51 PM 41.3575 -73.1178 272° West 113 130 5,800 -480 Descending Boston Center
Sun 07:04:54 PM 41.3597 -73.1572 274° West 107 123 5,100 -677 Descending Boston Center
Sun 07:05:55 PM 41.3614 -73.2006 273° West 108 124 4,400 -595 Descending Boston Center
Sun 07:06:55 PM 41.3628 -73.2319 273° West 103 119 3,900 -541 Descending Boston Center
Sun 07:07:57 PM 41.3669 -73.2711 278° West 105 121 3,300 -634 Descending Boston Center
Sun 07:08:58 PM 41.3800 -73.3133 292° West 105 121 2,600 -629 Descending Boston Center
Sun 07:10:01 PM 41.3917 -73.3439 297° West 101 116 2,000 -293 Descending Boston Center
Sun 07:11:01 PM 41.3975 -73.3725 285° West 90 104 2,000  Level Boston Center
Sun 07:12:02 PM 41.3914 -73.3969 252° West 77 89 2,000 -145 Level Boston Center
Sun 07:13:05 PM 41.3883 -73.4233 261° West 74 85 1,700 -336 Descending Boston Center
Sun 07:14:07 PM 41.3833 -73.4467 254° West 70 81 1,300 -293 Descending Boston Center
Sun 07:15:08 PM 41.3769 -73.4703 250° West 67 77 1,100 -197 Descending Boston Center
Sun 07:17:00 PM 41.3667 -73.4667 270° West  Level FlightAware Approximate

Login

Don't have an account? Register now (free) for customized features, flight alerts, and more!